createdAt,value
2022-10-11T00:01:34.579Z,11.48
2022-10-11T00:04:03.830Z,11.43
2022-10-11T00:06:32.797Z,11.41
2022-10-11T00:09:03.122Z,11.39
2022-10-11T00:11:32.527Z,11.37
2022-10-11T00:14:01.461Z,11.34
2022-10-11T00:16:30.418Z,11.32
2022-10-11T00:18:59.573Z,11.32
2022-10-11T00:21:28.853Z,11.30
2022-10-11T00:23:58.051Z,11.25
2022-10-11T00:26:28.684Z,11.24
2022-10-11T00:28:57.627Z,11.22
2022-10-11T00:31:26.675Z,11.17
2022-10-11T00:33:56.319Z,11.11
2022-10-11T00:36:25.288Z,11.07
2022-10-11T00:38:54.301Z,11.07
2022-10-11T00:41:24.151Z,11.04
2022-10-11T00:44:10.679Z,11.01
2022-10-11T00:46:41.540Z,10.99
2022-10-11T00:49:19.162Z,10.97
2022-10-11T00:51:53.469Z,10.97
2022-10-11T00:54:26.513Z,10.98
2022-10-11T00:57:01.490Z,10.97
2022-10-11T00:59:36.495Z,11.00
2022-10-11T01:02:07.015Z,10.95
2022-10-11T01:04:36.167Z,10.85
2022-10-11T01:07:05.637Z,10.84
2022-10-11T01:09:36.065Z,10.82
2022-10-11T01:12:06.137Z,10.81
2022-10-11T01:15:08.411Z,10.78
2022-10-11T01:17:45.824Z,10.73
2022-10-11T01:20:36.325Z,10.77
2022-10-11T01:23:17.219Z,10.75
2022-10-11T01:25:59.912Z,10.68
2022-10-11T01:28:43.548Z,10.67
2022-10-11T01:31:24.061Z,10.72
2022-10-11T01:33:56.421Z,10.69
2022-10-11T01:36:33.630Z,10.71
2022-10-11T01:39:07.178Z,10.69
2022-10-11T01:41:40.435Z,10.71
2022-10-11T01:44:12.538Z,10.68
2022-10-11T01:46:43.714Z,10.66
2022-10-11T01:49:13.075Z,10.69
2022-10-11T01:51:47.541Z,10.70
2022-10-11T01:55:03.903Z,10.72
2022-10-11T01:57:59.816Z,10.76
2022-10-11T02:00:35.239Z,10.77
2022-10-11T02:03:20.372Z,10.82
2022-10-11T02:05:57.758Z,10.85
2022-10-11T02:08:34.640Z,10.88
2022-10-11T02:11:10.901Z,10.92
2022-10-11T02:13:45.330Z,10.95
2022-10-11T02:16:20.039Z,10.98
2022-10-11T02:18:55.649Z,10.97
2022-10-11T02:21:25.877Z,10.99
2022-10-11T02:23:57.648Z,10.91
2022-10-11T02:26:29.694Z,11.01
2022-10-11T02:29:02.263Z,11.03
2022-10-11T02:31:35.596Z,11.05
2022-10-11T02:34:13.239Z,11.05
2022-10-11T02:36:51.596Z,11.03
2022-10-11T02:39:27.357Z,11.00
2022-10-11T02:42:03.467Z,10.99
2022-10-11T02:44:38.236Z,11.00
2022-10-11T02:47:08.844Z,10.97
2022-10-11T02:49:39.640Z,10.96
2022-10-11T02:52:08.986Z,10.95
2022-10-11T02:54:37.958Z,10.90
2022-10-11T02:57:07.100Z,10.90
2022-10-11T02:59:36.347Z,10.96
2022-10-11T03:02:05.368Z,10.97
2022-10-11T03:04:34.568Z,10.98
2022-10-11T03:07:04.940Z,10.92
2022-10-11T03:09:33.917Z,10.96
2022-10-11T03:12:03.417Z,11.00
2022-10-11T03:14:32.362Z,10.98
2022-10-11T03:17:23.709Z,10.98
2022-10-11T03:19:50.565Z,11.01
2022-10-11T03:22:20.902Z,11.02
2022-10-11T03:24:49.850Z,11.03
2022-10-11T03:27:19.136Z,11.02
2022-10-11T03:29:48.071Z,11.12
2022-10-11T03:32:17.292Z,11.21
2022-10-11T03:34:46.445Z,11.23
2022-10-11T03:37:15.418Z,11.26
2022-10-11T03:39:46.017Z,11.34
2022-10-11T03:42:15.789Z,11.25
2022-10-11T03:44:44.795Z,11.40
2022-10-11T03:47:13.906Z,11.40
2022-10-11T03:49:43.877Z,11.41
2022-10-11T03:52:13.020Z,11.47
2022-10-11T03:54:41.976Z,11.43
2022-10-11T03:57:12.531Z,11.34
2022-10-11T03:59:41.611Z,11.36
2022-10-11T04:02:11.059Z,11.40
2022-10-11T04:04:40.238Z,11.44
2022-10-11T04:07:09.236Z,11.45
2022-10-11T04:09:38.952Z,11.47
2022-10-11T04:12:08.421Z,11.49
2022-10-11T04:14:38.744Z,11.49
2022-10-11T04:17:07.492Z,11.49
2022-10-11T04:19:37.207Z,11.48
2022-10-11T04:22:06.791Z,11.47
2022-10-11T04:24:35.872Z,11.49
2022-10-11T04:27:05.162Z,11.44
2022-10-11T04:29:34.189Z,11.46
2022-10-11T04:32:04.518Z,11.54
2022-10-11T04:34:33.693Z,11.56
2022-10-11T04:37:02.641Z,11.50
2022-10-11T04:39:31.614Z,11.50
2022-10-11T04:42:00.764Z,11.54
2022-10-11T04:44:29.755Z,11.56
2022-10-11T04:46:59.139Z,11.61
2022-10-11T04:49:29.709Z,11.57
2022-10-11T04:51:58.698Z,11.60
2022-10-11T04:54:28.043Z,11.60
2022-10-11T04:56:57.204Z,11.65
2022-10-11T04:59:26.305Z,11.63
2022-10-11T05:01:55.333Z,11.68
2022-10-11T05:04:24.618Z,11.67
2022-10-11T05:06:55.088Z,11.68
2022-10-11T05:09:24.142Z,11.67
2022-10-11T05:11:53.344Z,11.62
2022-10-11T05:14:22.301Z,11.62
2022-10-11T05:16:51.242Z,11.59
2022-10-11T05:19:20.395Z,11.56
2022-10-11T05:21:49.347Z,11.53
2022-10-11T05:24:19.729Z,11.52
2022-10-11T05:26:48.910Z,11.45
2022-10-11T05:29:17.893Z,11.40
2022-10-11T05:31:46.880Z,11.35
2022-10-11T05:34:16.032Z,11.42
2022-10-11T05:36:44.988Z,11.41
2022-10-11T05:39:14.159Z,11.27
2022-10-11T05:41:44.495Z,11.32
2022-10-11T05:44:13.439Z,11.42
2022-10-11T05:46:42.658Z,11.40
2022-10-11T05:49:11.693Z,11.43
2022-10-11T05:51:41.168Z,11.51
2022-10-11T05:54:10.322Z,11.46
2022-10-11T05:56:39.285Z,11.53
2022-10-11T05:59:09.660Z,11.53
2022-10-11T06:01:38.943Z,11.57
2022-10-11T06:04:08.414Z,11.62
2022-10-11T06:06:37.374Z,11.53
2022-10-11T06:09:06.575Z,11.50
2022-10-11T06:11:35.511Z,11.53
2022-10-11T06:14:04.476Z,11.52
2022-10-11T06:16:35.030Z,11.52
2022-10-11T06:19:04.335Z,11.40
2022-10-11T06:21:33.463Z,11.40
2022-10-11T06:24:02.697Z,11.54
2022-10-11T06:26:31.974Z,11.56
2022-10-11T06:29:01.003Z,11.55
2022-10-11T06:31:30.335Z,11.61
2022-10-11T06:34:01.566Z,11.81
2022-10-11T06:36:30.957Z,11.65
2022-10-11T06:39:01.529Z,11.72
2022-10-11T06:41:31.790Z,11.75
2022-10-11T06:44:01.076Z,11.74
2022-10-11T06:46:32.290Z,11.76
2022-10-11T06:49:02.669Z,11.91
2022-10-11T06:51:32.558Z,11.78
2022-10-11T06:54:02.017Z,11.83
2022-10-11T06:56:32.071Z,11.85
2022-10-11T06:59:01.041Z,11.93
2022-10-11T07:01:30.136Z,12.01
2022-10-11T07:04:03.071Z,12.00
2022-10-11T07:06:32.721Z,12.10
2022-10-11T07:09:02.322Z,12.18
2022-10-11T07:11:31.732Z,12.27
2022-10-11T07:14:04.310Z,12.32
2022-10-11T07:16:33.395Z,12.35
2022-10-11T07:19:05.381Z,12.36
2022-10-11T07:21:35.751Z,12.27
2022-10-11T07:24:05.406Z,12.27
2022-10-11T07:26:38.543Z,12.30
2022-10-11T07:29:09.589Z,12.40
2022-10-11T07:31:39.636Z,12.42
2022-10-11T07:34:10.503Z,12.48
2022-10-11T07:36:39.821Z,12.52
2022-10-11T07:39:09.881Z,12.61
2022-10-11T07:41:44.665Z,12.72
2022-10-11T07:44:15.108Z,12.80
2022-10-11T07:46:44.176Z,12.77
2022-10-11T07:49:14.556Z,12.86
2022-10-11T07:51:43.711Z,12.98
2022-10-11T07:54:12.652Z,13.03
2022-10-11T07:56:41.609Z,13.08
2022-10-11T07:59:12.570Z,13.05
2022-10-11T08:01:41.601Z,13.09
2022-10-11T08:04:11.163Z,13.09
2022-10-11T08:06:42.404Z,13.15
2022-10-11T08:09:12.755Z,13.18
2022-10-11T08:11:42.054Z,13.19
2022-10-11T08:14:11.457Z,13.24
2022-10-11T08:16:41.051Z,13.31
2022-10-11T08:19:11.068Z,13.41
2022-10-11T08:21:41.728Z,13.42
2022-10-11T08:24:13.730Z,13.52
2022-10-11T08:26:43.184Z,13.49
2022-10-11T08:29:12.304Z,13.53
2022-10-11T08:31:41.285Z,13.51
2022-10-11T08:34:10.424Z,13.67
2022-10-11T08:36:40.895Z,13.75
2022-10-11T08:39:10.053Z,13.82
2022-10-11T08:41:43.144Z,13.88
2022-10-11T08:45:05.599Z,13.85
2022-10-11T08:47:34.069Z,13.96
2022-10-11T08:50:04.980Z,14.00
2022-10-11T08:52:46.314Z,14.13
2022-10-11T08:55:22.354Z,14.12
2022-10-11T08:57:55.905Z,14.06
2022-10-11T09:00:29.644Z,14.15
2022-10-11T09:03:09.078Z,14.19
2022-10-11T09:05:50.383Z,14.30
2022-10-11T09:08:28.077Z,14.32
2022-10-11T09:11:07.043Z,14.37
2022-10-11T09:13:55.271Z,14.43
2022-10-11T09:16:37.422Z,14.37
2022-10-11T09:19:39.482Z,14.52
2022-10-11T09:22:17.229Z,14.62
2022-10-11T09:25:06.376Z,14.71
2022-10-11T09:28:03.928Z,14.83
2022-10-11T09:31:10.022Z,14.70
2022-10-11T09:33:43.165Z,14.51
2022-10-11T09:36:20.085Z,14.60
2022-10-11T09:38:55.595Z,14.50
2022-10-11T09:41:37.533Z,14.64
2022-10-11T09:44:08.988Z,14.76
2022-10-11T09:46:42.157Z,14.87
2022-10-11T09:49:15.393Z,14.97
2022-10-11T09:51:49.274Z,15.06
2022-10-11T09:54:20.728Z,14.98
2022-10-11T09:56:51.363Z,15.03
2022-10-11T09:59:28.500Z,15.15
2022-10-11T10:02:22.669Z,15.36
2022-10-11T10:05:20.177Z,15.55
2022-10-11T10:08:22.390Z,15.57
2022-10-11T10:11:00.793Z,15.53
2022-10-11T10:13:44.862Z,15.49
2022-10-11T10:16:26.163Z,15.18
2022-10-11T10:18:58.213Z,15.23
2022-10-11T10:21:33.207Z,15.20
2022-10-11T10:24:06.210Z,14.91
2022-10-11T10:26:35.763Z,14.76
2022-10-11T10:29:20.151Z,14.81
2022-10-11T10:34:56.573Z,15.25
2022-10-11T10:37:30.570Z,15.42
2022-10-11T10:40:13.407Z,15.14
2022-10-11T10:42:42.533Z,15.04
2022-10-11T10:45:21.873Z,14.88
2022-10-11T10:48:14.189Z,14.73
2022-10-11T10:50:51.195Z,14.51
2022-10-11T10:53:28.773Z,14.40
2022-10-11T10:56:07.426Z,14.49
2022-10-11T10:58:57.525Z,14.60
2022-10-11T11:01:32.056Z,16.04
2022-10-11T11:04:08.059Z,16.58
2022-10-11T11:06:46.550Z,16.72
2022-10-11T11:09:34.144Z,16.79
2022-10-11T11:12:15.786Z,16.86
2022-10-11T11:14:55.028Z,16.76
2022-10-11T11:17:37.000Z,16.47
2022-10-11T11:20:22.629Z,16.16
2022-10-11T11:22:58.815Z,16.32
2022-10-11T11:25:40.329Z,16.18
2022-10-11T11:28:36.294Z,15.88
2022-10-11T11:31:12.659Z,15.63
2022-10-11T11:33:54.624Z,15.55
2022-10-11T11:36:32.916Z,15.67
2022-10-11T11:39:05.504Z,15.94
2022-10-11T11:41:40.094Z,16.04
2022-10-11T11:44:17.161Z,16.24
2022-10-11T11:46:52.048Z,16.34
2022-10-11T11:49:29.894Z,16.54
2022-10-11T11:52:00.144Z,16.60
2022-10-11T11:54:47.626Z,16.44
2022-10-11T11:57:27.224Z,16.43
2022-10-11T12:00:02.119Z,16.25
2022-10-11T12:02:47.050Z,16.02
2022-10-11T12:05:21.117Z,15.91
2022-10-11T12:08:02.031Z,15.73
2022-10-11T12:10:36.780Z,15.78
2022-10-11T12:13:22.166Z,15.82
2022-10-11T12:16:10.271Z,16.08
2022-10-11T12:18:51.785Z,16.27
2022-10-11T12:21:31.147Z,16.35
2022-10-11T12:24:01.086Z,16.45
2022-10-11T12:26:43.528Z,16.53
2022-10-11T12:29:48.032Z,16.72
2022-10-11T12:33:06.279Z,16.83
2022-10-11T12:36:33.540Z,16.95
2022-10-11T12:40:58.891Z,17.07
2022-10-11T12:43:37.331Z,17.20
2022-10-11T12:46:39.461Z,17.29
2022-10-11T12:49:42.470Z,17.30
2022-10-11T12:52:33.697Z,17.35
2022-10-11T12:55:26.565Z,17.25
2022-10-11T12:58:29.142Z,17.17
2022-10-11T13:01:11.557Z,16.98
2022-10-11T13:03:43.579Z,16.86
2022-10-11T13:06:16.795Z,16.34
2022-10-11T13:08:50.203Z,16.37
2022-10-11T13:11:26.237Z,16.21
2022-10-11T13:14:11.665Z,15.99
2022-10-11T13:16:52.205Z,15.67
2022-10-11T13:19:24.311Z,15.61
2022-10-11T13:21:55.805Z,15.54
2022-10-11T13:24:26.286Z,15.58
2022-10-11T13:27:05.401Z,15.48
2022-10-11T13:29:37.233Z,15.41
2022-10-11T13:32:11.716Z,15.43
2022-10-11T13:34:42.955Z,15.38
2022-10-11T13:37:19.223Z,15.46
2022-10-11T13:39:50.062Z,15.51
2022-10-11T13:42:26.982Z,15.40
2022-10-11T13:44:56.726Z,15.52
2022-10-11T13:47:29.033Z,15.50
2022-10-11T13:50:10.889Z,15.43
2022-10-11T13:53:00.538Z,15.28
2022-10-11T13:55:35.348Z,15.09
2022-10-11T13:58:18.723Z,14.98
2022-10-11T14:00:56.118Z,14.72
2022-10-11T14:03:29.814Z,14.75
2022-10-11T14:06:01.382Z,14.66
2022-10-11T14:08:35.531Z,14.49
2022-10-11T14:11:06.514Z,14.46
2022-10-11T14:13:39.667Z,14.35
2022-10-11T14:16:10.565Z,14.34
2022-10-11T14:18:48.368Z,14.12
2022-10-11T14:21:48.509Z,14.08
2022-10-11T14:24:18.293Z,14.01
2022-10-11T14:26:48.933Z,13.96
2022-10-11T14:29:24.762Z,13.93
2022-10-11T14:31:56.423Z,13.68
2022-10-11T14:34:27.213Z,13.69
2022-10-11T14:36:57.759Z,13.70
2022-10-11T14:39:28.659Z,13.67
2022-10-11T14:41:57.729Z,13.63
2022-10-11T14:44:26.877Z,13.55
2022-10-11T14:46:56.534Z,13.44
2022-10-11T14:49:27.627Z,13.45
2022-10-11T14:52:00.430Z,13.43
2022-10-11T14:54:30.953Z,13.42
2022-10-11T14:57:02.245Z,13.35
2022-10-11T14:59:36.352Z,13.17
2022-10-11T15:02:07.332Z,13.16
2022-10-11T15:04:36.396Z,13.15
2022-10-11T15:07:07.002Z,13.13
2022-10-11T15:09:36.014Z,13.14
2022-10-11T15:12:05.584Z,13.09
2022-10-11T15:14:34.541Z,13.04
2022-10-11T15:17:03.547Z,12.96
2022-10-11T15:19:32.729Z,12.94
2022-10-11T15:22:04.329Z,12.88
2022-10-11T15:24:34.880Z,12.91
2022-10-11T15:27:03.852Z,12.93
2022-10-11T15:29:32.802Z,12.91
2022-10-11T15:32:02.007Z,12.79
2022-10-11T15:34:30.980Z,12.82
2022-10-11T15:36:59.975Z,12.83
2022-10-11T15:39:32.523Z,12.77
2022-10-11T15:42:02.879Z,12.76
2022-10-11T15:44:32.116Z,12.70
2022-10-11T15:47:01.117Z,12.75
2022-10-11T15:49:30.342Z,12.74
2022-10-11T15:51:59.286Z,12.71
2022-10-11T15:54:28.235Z,12.67
2022-10-11T15:56:57.408Z,12.62
2022-10-11T15:59:27.796Z,12.65
2022-10-11T16:01:57.141Z,12.65
2022-10-11T16:04:26.168Z,12.63
2022-10-11T16:06:55.143Z,12.61
2022-10-11T16:09:24.493Z,12.61
2022-10-11T16:11:53.464Z,12.54
2022-10-11T16:14:22.631Z,12.50
2022-10-11T16:16:52.974Z,12.46
2022-10-11T16:19:22.175Z,12.42
2022-10-11T16:21:51.123Z,12.38
2022-10-11T16:24:20.296Z,12.40
2022-10-11T16:26:49.253Z,12.35
2022-10-11T16:29:18.421Z,12.32
2022-10-11T16:31:47.378Z,12.32
2022-10-11T16:34:17.927Z,12.28
2022-10-11T16:36:46.874Z,12.28
2022-10-11T16:39:18.253Z,12.23
2022-10-11T16:41:48.021Z,12.21
2022-10-11T16:44:18.771Z,12.16
2022-10-11T16:46:49.428Z,12.09
2022-10-11T16:49:22.557Z,12.05
2022-10-11T16:51:52.866Z,12.06
2022-10-11T16:54:22.337Z,12.03
2022-10-11T16:56:51.600Z,12.02
2022-10-11T16:59:21.496Z,12.01
2022-10-11T17:01:50.793Z,11.98
2022-10-11T17:04:21.365Z,11.95
2022-10-11T17:06:50.101Z,11.93
2022-10-11T17:09:19.562Z,11.88
2022-10-11T17:11:48.589Z,11.83
2022-10-11T17:14:18.744Z,11.80
2022-10-11T17:16:47.720Z,11.78
2022-10-11T17:19:17.557Z,11.69
2022-10-11T17:21:47.921Z,11.65
2022-10-11T17:24:17.096Z,11.59
2022-10-11T17:26:46.067Z,11.57
2022-10-11T17:29:16.973Z,11.56
2022-10-11T17:31:49.181Z,11.54
2022-10-11T17:34:19.099Z,11.54
2022-10-11T17:36:49.489Z,11.54
2022-10-11T17:39:21.407Z,11.48
2022-10-11T17:41:51.122Z,11.42
2022-10-11T17:44:21.761Z,11.39
2022-10-11T17:46:51.249Z,11.37
2022-10-11T17:49:20.436Z,11.35
2022-10-11T17:51:50.779Z,11.33
2022-10-11T17:54:19.975Z,11.33
2022-10-11T17:56:49.542Z,11.34
2022-10-11T17:59:36.908Z,11.31
2022-10-11T18:02:07.597Z,11.30
2022-10-11T18:04:37.511Z,11.28
2022-10-11T18:07:07.906Z,11.25
2022-10-11T18:09:37.160Z,11.24
2022-10-11T18:12:06.662Z,11.18
2022-10-11T18:14:35.872Z,11.15
2022-10-11T18:17:05.380Z,11.13
2022-10-11T18:19:34.490Z,11.12
2022-10-11T18:22:41.063Z,11.05
2022-10-11T18:25:06.237Z,11.03
2022-10-11T18:27:35.850Z,11.00
2022-10-11T18:30:05.428Z,10.98
2022-10-11T18:32:35.036Z,10.99
2022-10-11T18:35:04.557Z,10.99
2022-10-11T18:37:35.195Z,10.95
2022-10-11T18:40:04.831Z,10.92
2022-10-11T18:42:34.121Z,10.91
2022-10-11T18:45:03.237Z,10.89
2022-10-11T18:47:32.440Z,10.89
2022-10-11T18:50:01.736Z,10.84
2022-10-11T18:52:30.852Z,10.82
2022-10-11T18:55:02.850Z,10.81
2022-10-11T18:57:32.488Z,10.79
2022-10-11T19:00:11.656Z,10.78
2022-10-11T19:02:51.052Z,10.71
2022-10-11T19:05:20.339Z,10.70
2022-10-11T19:07:49.376Z,10.65
2022-10-11T19:10:20.243Z,10.67
2022-10-11T19:12:49.273Z,10.63
2022-10-11T19:15:23.169Z,10.60
2022-10-11T19:17:54.321Z,10.62
2022-10-11T19:20:23.578Z,10.54
2022-10-11T19:22:52.602Z,10.54
2022-10-11T19:25:23.643Z,10.54
2022-10-11T19:27:52.909Z,10.55
2022-10-11T19:30:24.661Z,10.55
2022-10-11T19:32:54.399Z,10.56
2022-10-11T19:35:23.384Z,10.55
2022-10-11T19:37:52.593Z,10.56
2022-10-11T19:40:23.070Z,10.54
2022-10-11T19:42:52.105Z,10.56
2022-10-11T19:45:21.406Z,10.53
2022-10-11T19:47:50.367Z,10.53
2022-10-11T19:50:19.460Z,10.53
2022-10-11T19:52:48.646Z,10.51
2022-10-11T19:55:17.719Z,10.46
2022-10-11T19:57:48.297Z,10.45
2022-10-11T20:00:17.500Z,10.42
2022-10-11T20:02:46.673Z,10.42
2022-10-11T20:05:15.768Z,10.41
2022-10-11T20:07:45.111Z,10.44
2022-10-11T20:10:14.102Z,10.47
2022-10-11T20:12:45.901Z,10.46
2022-10-11T20:15:16.611Z,10.46
2022-10-11T20:17:51.798Z,10.44
2022-10-11T20:20:20.873Z,10.42
2022-10-11T20:22:50.041Z,10.39
2022-10-11T20:25:19.051Z,10.39
2022-10-11T20:27:48.276Z,10.40
2022-10-11T20:30:18.852Z,10.36
2022-10-11T20:32:48.010Z,10.38
2022-10-11T20:35:17.197Z,10.37
2022-10-11T20:37:46.370Z,10.34
2022-10-11T20:40:16.380Z,10.32
2022-10-11T20:42:45.296Z,10.32
2022-10-11T20:45:14.278Z,10.31
2022-10-11T20:47:44.599Z,10.28
2022-10-11T20:50:13.763Z,10.26
2022-10-11T20:52:43.281Z,10.22
2022-10-11T20:55:12.623Z,10.21
2022-10-11T20:57:41.858Z,10.19
2022-10-11T21:00:12.214Z,10.17
2022-10-11T21:02:41.183Z,10.18
2022-10-11T21:05:11.975Z,10.16
2022-10-11T21:07:42.443Z,10.15
2022-10-11T21:10:11.755Z,10.13
2022-10-11T21:12:40.720Z,10.14
2022-10-11T21:15:10.640Z,10.14
2022-10-11T21:17:39.731Z,10.12
2022-10-11T21:20:11.343Z,10.11
2022-10-11T21:22:40.431Z,10.12
2022-10-11T21:25:09.711Z,10.11
2022-10-11T21:27:38.835Z,10.08
2022-10-11T21:30:08.858Z,10.11
2022-10-11T21:32:38.413Z,10.11
2022-10-11T21:35:07.643Z,10.11
2022-10-11T21:37:38.076Z,10.13
2022-10-11T21:40:08.004Z,10.14
2022-10-11T21:42:37.204Z,10.14
2022-10-11T21:45:06.935Z,10.16
2022-10-11T21:47:39.005Z,10.15
2022-10-11T21:50:08.953Z,10.12
2022-10-11T21:52:39.496Z,10.12
2022-10-11T21:55:08.379Z,10.11
2022-10-11T21:57:37.533Z,10.11
2022-10-11T22:00:08.854Z,10.09
2022-10-11T22:02:42.454Z,10.10
2022-10-11T22:05:11.387Z,10.11
2022-10-11T22:07:41.696Z,10.04
2022-10-11T22:10:10.922Z,10.06
2022-10-11T22:12:39.948Z,10.07
2022-10-11T22:15:10.028Z,10.11
2022-10-11T22:17:38.937Z,10.08
2022-10-11T22:20:08.807Z,10.08
2022-10-11T22:22:38.081Z,10.10
2022-10-11T22:25:10.094Z,10.09
2022-10-11T22:27:39.050Z,10.08
2022-10-11T22:30:09.618Z,10.09
2022-10-11T22:32:38.600Z,10.11
2022-10-11T22:35:08.211Z,10.11
2022-10-11T22:37:37.671Z,10.14
2022-10-11T22:40:09.544Z,10.10
2022-10-11T22:42:38.716Z,10.13
2022-10-11T22:45:08.351Z,10.18
2022-10-11T22:47:37.690Z,10.17
2022-10-11T22:50:07.762Z,10.20
2022-10-11T22:52:36.836Z,10.22
2022-10-11T22:55:06.278Z,10.25
2022-10-11T22:57:37.106Z,10.25
2022-10-11T23:00:07.771Z,10.25
2022-10-11T23:02:36.937Z,10.19
2022-10-11T23:05:06.169Z,10.19
2022-10-11T23:07:35.382Z,10.19
2022-10-11T23:10:05.269Z,10.17
2022-10-11T23:12:35.914Z,10.16
2022-10-11T23:15:05.469Z,10.17
2022-10-11T23:17:34.691Z,10.18
2022-10-11T23:20:04.942Z,10.15
2022-10-11T23:22:34.146Z,10.13
2022-10-11T23:25:03.119Z,10.13
2022-10-11T23:27:32.091Z,10.14
2022-10-11T23:30:02.813Z,10.16
2022-10-11T23:32:31.562Z,10.09
2022-10-11T23:35:00.705Z,10.07
2022-10-11T23:37:29.692Z,10.08
2022-10-11T23:39:58.668Z,10.09
2022-10-11T23:42:27.806Z,10.11
2022-10-11T23:44:56.727Z,10.11
2022-10-11T23:47:27.029Z,10.05
2022-10-11T23:49:56.171Z,10.05
2022-10-11T23:52:25.375Z,10.05
2022-10-11T23:54:55.690Z,10.02
2022-10-11T23:57:24.846Z,10.01
2022-10-11T23:59:53.803Z,9.97
